X  CloseMetar Aviation Weather Data     EBBR Brussels

Température

22°C Température

13°C Point de rosée

57% Humidité



Vitesse

13 KM/H

 8 MPH

 4 M/S

 7 KTS



50°
Nord Est
Conditions actuelles

Claire Claire
Pressure 1027.92 (hPa) - 30.35 (in)
Visibilité 6.2 (mi) - 10 (km)
Aéroport
Airport-code EBBR

Emplacement Brussels 21 (km)

Metar:
EBBR 271150Z 05007KT 010V100 CAVOK 22/13 Q1028 NOSIG

Temps: 27-06-2019 13:50